Time;durP1;ratioP1;P1;durP2;ratioP2;P2;SDS_P1;SDS_P2;PMS_P1;PMS_P2;Temp;Humidity;BMP_temperature;BMP_pressure;BME280_temperature;BME280_humidity;BME280_pressure;Samples;Min_cycle;Max_cycle;Signal;HPM_P1;HPM_P2
2021/07/02 00:00:13;;;;;;;29.57;19.77;;;14.00;99.90;;;;;;5039677;28;20436;-44
2021/07/02 00:02:43;;;;;;;32.10;20.93;;;14.00;99.90;;;;;;5046541;28;20228;-42
2021/07/02 00:05:10;;;;;;;32.50;21.00;;;14.00;99.90;;;;;;5046316;28;20819;-41
2021/07/02 00:07:37;;;;;;;29.93;19.87;;;14.00;99.90;;;;;;5046785;28;20791;-44
2021/07/02 00:10:04;;;;;;;27.00;19.17;;;14.00;99.90;;;;;;5046687;28;20833;-44
2021/07/02 00:12:30;;;;;;;33.93;19.53;;;14.00;99.90;;;;;;5046379;28;20424;-41
2021/07/02 00:14:55;;;;;;;27.27;19.30;;;14.00;99.90;;;;;;5032615;28;20437;-44
2021/07/02 00:17:21;;;;;;;30.67;19.90;;;14.10;99.90;;;;;;5044010;28;20564;-42
2021/07/02 00:19:47;;;;;;;29.17;19.40;;;14.10;99.90;;;;;;5046436;28;20193;-43
2021/07/02 00:22:12;;;;;;;30.37;20.33;;;14.10;99.90;;;;;;5062980;28;20242;-41
2021/07/02 00:24:38;;;;;;;31.50;20.70;;;14.10;99.90;;;;;;5055726;28;20271;-41
2021/07/02 00:27:04;;;;;;;34.63;21.50;;;14.00;99.90;;;;;;5066002;28;20185;-40
2021/07/02 00:29:30;;;;;;;27.63;20.20;;;14.00;99.90;;;;;;5050052;28;20241;-41
2021/07/02 00:31:55;;;;;;;34.37;21.70;;;14.00;99.90;;;;;;5045329;28;20954;-41
2021/07/02 00:34:21;;;;;;;27.90;21.57;;;14.00;99.90;;;;;;5045809;28;20213;-43
2021/07/02 00:36:47;;;;;;;35.40;21.50;;;14.00;99.90;;;;;;5046180;28;20618;-44
2021/07/02 00:39:13;;;;;;;34.53;22.20;;;14.00;99.90;;;;;;5046082;28;20281;-41
2021/07/02 00:41:38;;;;;;;29.93;21.13;;;14.00;99.90;;;;;;5044777;28;20251;-41
2021/07/02 00:44:04;;;;;;;33.73;21.17;;;14.10;99.90;;;;;;5041284;28;20182;-43
2021/07/02 00:46:30;;;;;;;34.70;21.07;;;14.00;99.90;;;;;;5036882;28;20460;-42
2021/07/02 00:48:56;;;;;;;35.03;22.00;;;14.00;99.90;;;;;;5045074;28;20519;-44
2021/07/02 00:51:22;;;;;;;38.93;23.13;;;14.00;99.90;;;;;;5046166;28;20197;-43
2021/07/02 00:53:48;;;;;;;33.97;21.80;;;14.00;99.90;;;;;;5045500;28;20264;-41
2021/07/02 00:56:19;;;;;;;36.43;22.43;;;14.00;99.90;;;;;;5045515;28;20609;-45
2021/07/02 00:58:45;;;;;;;38.77;24.03;;;14.00;99.90;;;;;;5045868;28;20958;-44
2021/07/02 01:01:15;;;;;;;34.97;23.37;;;14.00;99.90;;;;;;5034117;28;20432;-41
2021/07/02 01:03:42;;;;;;;37.70;22.27;;;14.00;99.90;;;;;;5045197;28;20412;-41
2021/07/02 01:06:09;;;;;;;36.47;23.50;;;14.10;99.90;;;;;;5044480;28;20408;-45
2021/07/02 01:08:36;;;;;;;33.20;23.27;;;14.00;99.90;;;;;;5049368;28;20451;-42
2021/07/02 01:11:02;;;;;;;37.37;23.33;;;14.00;99.90;;;;;;5049731;28;20431;-44
2021/07/02 01:13:28;;;;;;;35.20;22.57;;;14.00;99.90;;;;;;5049609;28;20467;-43
2021/07/02 01:15:54;;;;;;;32.93;21.87;;;14.00;99.90;;;;;;5039980;28;20468;-42
2021/07/02 01:18:22;;;;;;;34.03;23.50;;;14.00;99.90;;;;;;5049672;28;20688;-42
2021/07/02 01:20:55;;;;;;;38.47;24.90;;;14.10;99.90;;;;;;5049727;28;20570;-44
2021/07/02 01:23:21;;;;;;;38.63;24.50;;;14.10;99.90;;;;;;5048476;28;20441;-43
2021/07/02 01:25:48;;;;;;;34.97;22.57;;;14.00;99.90;;;;;;5048608;28;20424;-40
2021/07/02 01:28:15;;;;;;;37.43;24.73;;;14.10;99.90;;;;;;5049648;28;20882;-41
2021/07/02 01:30:42;;;;;;;40.13;24.63;;;14.10;99.90;;;;;;5038452;28;20433;-41
2021/07/02 01:33:08;;;;;;;37.00;23.33;;;14.10;99.90;;;;;;5048560;28;20502;-43
2021/07/02 01:35:34;;;;;;;39.13;24.13;;;14.10;99.90;;;;;;5049514;28;21017;-42
2021/07/02 01:38:01;;;;;;;35.60;23.73;;;14.00;99.90;;;;;;5048848;28;20993;-43
2021/07/02 01:40:26;;;;;;;34.90;24.47;;;14.00;99.90;;;;;;5049586;28;20485;-43
2021/07/02 01:42:52;;;;;;;45.63;26.10;;;14.00;99.90;;;;;;5048605;28;20428;-42
2021/07/02 01:45:18;;;;;;;39.13;24.13;;;14.00;99.90;;;;;;5040331;28;20195;-41
2021/07/02 01:47:43;;;;;;;39.10;25.90;;;14.00;99.90;;;;;;5046701;28;20217;-45
2021/07/02 01:50:09;;;;;;;41.43;24.20;;;14.10;99.90;;;;;;5049646;28;20189;-42
2021/07/02 01:52:35;;;;;;;40.23;26.27;;;14.00;99.90;;;;;;5048963;28;20219;-41
2021/07/02 01:55:01;;;;;;;37.30;23.70;;;14.10;99.90;;;;;;5048336;28;20930;-43
2021/07/02 01:57:28;;;;;;;40.03;24.97;;;14.00;99.90;;;;;;5049316;28;20310;-45
2021/07/02 01:59:54;;;;;;;41.23;24.53;;;14.00;99.90;;;;;;5044704;28;20285;-44
2021/07/02 02:02:20;;;;;;;39.50;24.23;;;14.00;99.90;;;;;;5044041;28;20409;-41
2021/07/02 02:04:46;;;;;;;37.33;22.20;;;14.00;99.90;;;;;;5048026;28;20420;-41
2021/07/02 02:07:12;;;;;;;41.70;24.47;;;14.00;99.90;;;;;;5047371;28;20443;-43
2021/07/02 02:09:38;;;;;;;40.70;23.47;;;14.00;99.90;;;;;;5048727;28;20213;-42
2021/07/02 02:12:04;;;;;;;41.27;23.73;;;14.00;99.90;;;;;;5048880;28;20190;-41
2021/07/02 02:14:30;;;;;;;39.43;24.07;;;14.00;99.90;;;;;;5045565;28;20512;-41
2021/07/02 02:16:56;;;;;;;43.10;25.77;;;14.00;99.90;;;;;;5042241;28;20505;-45
2021/07/02 02:19:22;;;;;;;41.87;24.77;;;14.00;99.90;;;;;;5047504;28;20627;-42
2021/07/02 02:21:50;;;;;;;37.03;24.77;;;13.90;99.90;;;;;;5048511;28;20436;-45
2021/07/02 02:24:16;;;;;;;40.60;24.33;;;14.00;99.90;;;;;;5047946;28;20515;-41
2021/07/02 02:26:42;;;;;;;41.93;23.90;;;14.00;99.90;;;;;;5048438;28;20440;-42
2021/07/02 02:29:08;;;;;;;38.70;23.20;;;14.00;99.90;;;;;;5047326;28;20462;-40
2021/07/02 02:31:34;;;;;;;37.37;24.53;;;13.90;99.90;;;;;;5040991;28;20432;-43
2021/07/02 02:34:00;;;;;;;39.97;24.07;;;14.00;99.90;;;;;;5040063;28;20216;-41
2021/07/02 02:36:26;;;;;;;42.33;25.67;;;14.00;99.90;;;;;;5048313;28;20553;-42
2021/07/02 02:38:52;;;;;;;36.77;24.70;;;13.90;99.90;;;;;;5047415;28;20456;-44
2021/07/02 02:41:17;;;;;;;43.70;26.67;;;14.00;99.90;;;;;;5048191;28;21066;-40
2021/07/02 02:43:43;;;;;;;44.10;26.03;;;13.90;99.90;;;;;;5048005;28;20192;-41
2021/07/02 02:46:09;;;;;;;41.90;24.07;;;14.00;99.90;;;;;;5036142;28;20439;-41
2021/07/02 02:48:35;;;;;;;41.90;25.13;;;13.90;99.90;;;;;;5045577;28;20687;-41
2021/07/02 02:51:01;;;;;;;38.57;24.67;;;13.90;99.90;;;;;;5047703;28;20416;-43
2021/07/02 02:53:26;;;;;;;41.60;23.97;;;14.00;99.90;;;;;;5047324;28;20212;-42
2021/07/02 02:55:53;;;;;;;42.67;25.73;;;14.00;99.90;;;;;;5046846;28;20229;-43
2021/07/02 02:58:18;;;;;;;35.33;23.60;;;14.00;99.90;;;;;;5047764;28;21034;-44
2021/07/02 03:00:44;;;;;;;43.47;26.00;;;13.90;99.90;;;;;;5041013;28;20429;-44
2021/07/02 03:03:10;;;;;;;48.17;25.57;;;14.00;99.90;;;;;;5040524;28;20193;-42
2021/07/02 03:05:36;;;;;;;39.13;25.13;;;14.00;99.90;;;;;;5047886;28;20190;-40
2021/07/02 03:08:02;;;;;;;38.47;24.93;;;14.00;99.90;;;;;;5047794;28;20596;-43
2021/07/02 03:10:29;;;;;;;35.63;24.77;;;14.00;99.90;;;;;;5047753;28;20523;-45
2021/07/02 03:12:55;;;;;;;39.73;23.03;;;14.00;99.90;;;;;;5045905;28;20196;-41
2021/07/02 03:15:21;;;;;;;37.13;23.77;;;14.00;99.90;;;;;;5043577;28;20440;-40
2021/07/02 03:17:47;;;;;;;40.10;25.27;;;13.90;99.90;;;;;;5041157;28;20753;-43
2021/07/02 03:20:13;;;;;;;40.93;26.13;;;14.00;99.90;;;;;;5047793;28;20826;-40
2021/07/02 03:22:41;;;;;;;40.97;23.93;;;13.90;99.90;;;;;;5047627;28;20196;-41
2021/07/02 03:25:08;;;;;;;37.60;23.10;;;14.00;99.90;;;;;;5046569;28;20878;-41
2021/07/02 03:27:34;;;;;;;41.43;25.10;;;14.00;99.90;;;;;;5047453;28;21199;-42
2021/07/02 03:30:00;;;;;;;45.00;24.70;;;14.00;99.90;;;;;;5043565;28;20431;-41
2021/07/02 03:32:25;;;;;;;39.63;23.27;;;14.00;99.90;;;;;;5031861;28;20422;-42
2021/07/02 03:34:51;;;;;;;39.70;23.37;;;14.00;99.90;;;;;;5044477;28;20194;-45
2021/07/02 03:37:17;;;;;;;37.00;23.77;;;14.00;99.90;;;;;;5047276;28;20258;-42
2021/07/02 03:39:43;;;;;;;39.20;23.30;;;14.00;99.90;;;;;;5047111;28;20232;-40
2021/07/02 03:42:09;;;;;;;36.87;22.10;;;14.00;99.90;;;;;;5047159;28;20186;-41
2021/07/02 03:44:35;;;;;;;32.77;22.90;;;14.00;99.90;;;;;;5046789;28;20197;-42
2021/07/02 03:47:01;;;;;;;39.23;23.60;;;14.00;99.90;;;;;;5039277;28;20204;-43
2021/07/02 03:49:27;;;;;;;36.90;21.90;;;14.00;99.90;;;;;;5046504;28;20416;-41
2021/07/02 03:51:53;;;;;;;36.97;22.53;;;14.00;99.90;;;;;;5045810;28;20535;-42
2021/07/02 03:54:19;;;;;;;37.73;23.57;;;14.00;99.90;;;;;;5046157;28;20638;-43
2021/07/02 03:59:29;;;;;;;32.93;21.50;;;14.00;99.90;;;;;;5046601;28;20438;-42
2021/07/02 04:01:55;;;;;;;31.17;21.53;;;14.00;99.90;;;;;;5036359;28;20436;-41
2021/07/02 04:04:21;;;;;;;33.17;20.53;;;14.00;99.90;;;;;;5046066;28;20224;-41
2021/07/02 04:06:47;;;;;;;33.03;22.90;;;14.00;99.90;;;;;;5046773;28;20588;-41
2021/07/02 04:09:14;;;;;;;33.23;21.13;;;14.00;99.90;;;;;;5046942;28;20448;-43
2021/07/02 04:11:39;;;;;;;32.10;20.27;;;14.00;99.90;;;;;;5046495;28;20434;-43
2021/07/02 04:14:05;;;;;;;29.40;18.80;;;14.00;99.90;;;;;;5044372;28;20515;-43
2021/07/02 04:16:31;;;;;;;34.50;22.07;;;14.00;99.90;;;;;;5035634;28;20217;-42
2021/07/02 04:18:57;;;;;;;28.77;20.37;;;14.00;99.90;;;;;;5044335;28;20800;-45
2021/07/02 04:21:23;;;;;;;33.43;21.13;;;14.00;99.90;;;;;;5045267;28;20236;-42
2021/07/02 04:23:49;;;;;;;32.80;19.80;;;14.10;99.90;;;;;;5045750;28;20714;-41
2021/07/02 04:26:15;;;;;;;32.37;20.10;;;14.00;99.90;;;;;;5046406;28;20432;-43
2021/07/02 04:28:40;;;;;;;31.07;23.27;;;14.10;99.90;;;;;;5044867;28;20280;-46
2021/07/02 04:31:07;;;;;;;31.70;21.27;;;14.00;99.90;;;;;;5025351;28;20532;-43
2021/07/02 04:33:33;;;;;;;35.33;21.43;;;14.00;99.90;;;;;;5043213;28;20186;-45
2021/07/02 04:35:58;;;;;;;32.37;21.50;;;14.10;99.90;;;;;;5046654;28;20427;-42
2021/07/02 04:38:24;;;;;;;31.57;21.40;;;14.00;99.90;;;;;;5046100;28;20687;-40
2021/07/02 04:40:50;;;;;;;38.17;21.80;;;14.00;99.90;;;;;;5046096;28;20189;-41
2021/07/02 04:43:16;;;;;;;37.53;22.90;;;14.10;99.90;;;;;;5044482;28;20193;-41
2021/07/02 04:45:42;;;;;;;35.57;22.33;;;14.10;99.90;;;;;;5043420;28;20555;-43
2021/07/02 04:48:08;;;;;;;30.53;21.47;;;14.10;99.90;;;;;;5040575;28;20988;-40
2021/07/02 04:50:34;;;;;;;34.47;22.37;;;14.10;99.90;;;;;;5046070;28;20424;-43
2021/07/02 04:53:00;;;;;;;34.30;22.87;;;14.10;99.90;;;;;;5045528;28;20577;-45
2021/07/02 04:55:26;;;;;;;34.03;22.27;;;14.10;99.90;;;;;;5044935;28;20515;-41
2021/07/02 04:57:51;;;;;;;35.53;21.70;;;14.10;99.90;;;;;;5044409;28;20475;-45
2021/07/02 05:00:18;;;;;;;34.27;22.00;;;14.10;99.90;;;;;;5045982;28;20770;-45
2021/07/02 05:02:43;;;;;;;35.83;21.97;;;14.10;99.90;;;;;;5031720;28;20182;-42
2021/07/02 05:05:10;;;;;;;35.00;23.57;;;14.10;99.90;;;;;;5045325;28;20420;-43
2021/07/02 05:07:36;;;;;;;30.97;21.70;;;14.20;99.90;;;;;;5045992;28;20197;-44
2021/07/02 05:10:04;;;;;;;38.43;22.67;;;14.20;99.90;;;;;;5044662;28;20436;-41
2021/07/02 05:12:31;;;;;;;33.17;21.23;;;14.20;99.90;;;;;;5045515;28;20439;-41
2021/07/02 05:14:57;;;;;;;35.27;20.40;;;14.20;99.90;;;;;;5034110;28;20445;-46
2021/07/02 05:17:22;;;;;;;34.47;21.33;;;14.20;99.90;;;;;;5036375;28;20483;-44
2021/07/02 05:19:48;;;;;;;35.23;22.03;;;14.30;99.90;;;;;;5045835;28;20189;-43
2021/07/02 05:22:18;;;;;;;33.73;20.80;;;14.30;99.90;;;;;;5045929;28;20221;-43
2021/07/02 05:24:48;;;;;;;33.20;22.27;;;14.30;99.90;;;;;;5045059;28;20787;-45
2021/07/02 05:27:14;;;;;;;34.50;22.60;;;14.30;99.90;;;;;;5045743;28;20436;-43
2021/07/02 05:29:41;;;;;;;30.40;20.40;;;14.30;99.90;;;;;;5045810;28;20436;-44
2021/07/02 05:32:07;;;;;;;37.13;22.27;;;14.30;99.90;;;;;;5037364;28;20475;-42
2021/07/02 05:34:33;;;;;;;37.47;22.10;;;14.30;99.90;;;;;;5042247;28;20423;-44
2021/07/02 05:37:00;;;;;;;32.17;22.50;;;14.30;99.90;;;;;;5045364;28;20494;-40
2021/07/02 05:39:26;;;;;;;35.00;21.33;;;14.30;99.90;;;;;;5044330;28;20431;-44
2021/07/02 05:41:52;;;;;;;34.57;21.07;;;14.40;99.90;;;;;;5045341;28;20768;-46
2021/07/02 05:44:18;;;;;;;35.83;21.97;;;14.40;99.90;;;;;;5045336;28;21037;-42
2021/07/02 05:46:43;;;;;;;34.07;21.13;;;14.40;99.90;;;;;;5039200;28;20229;-43
2021/07/02 05:49:09;;;;;;;34.87;21.27;;;14.50;99.90;;;;;;5038767;28;20190;-44
2021/07/02 05:51:35;;;;;;;34.87;20.97;;;14.50;99.90;;;;;;5044002;28;20189;-43
2021/07/02 05:54:01;;;;;;;31.03;20.90;;;14.60;99.90;;;;;;5048147;28;20814;-41
2021/07/02 05:56:29;;;;;;;32.67;19.40;;;14.60;99.90;;;;;;5047404;28;20286;-42
2021/07/02 05:58:56;;;;;;;30.77;20.23;;;14.70;99.90;;;;;;5049345;28;20182;-41
2021/07/02 06:01:21;;;;;;;34.13;21.00;;;14.70;99.90;;;;;;5060916;28;20447;-44
2021/07/02 06:03:47;;;;;;;38.37;20.53;;;14.70;99.90;;;;;;5042495;28;20424;-42
2021/07/02 06:06:13;;;;;;;37.53;20.70;;;14.80;99.90;;;;;;5050861;28;20239;-45
2021/07/02 06:08:38;;;;;;;28.93;18.80;;;15.00;99.90;;;;;;5050141;28;20236;-42
2021/07/02 06:11:04;;;;;;;33.00;19.50;;;15.20;99.90;;;;;;5047711;28;20251;-42
2021/07/02 06:13:30;;;;;;;32.63;19.00;;;15.40;99.90;;;;;;5047962;28;20265;-43
2021/07/02 06:15:55;;;;;;;29.63;19.67;;;15.50;99.90;;;;;;5047253;28;20428;-42
2021/07/02 06:18:21;;;;;;;30.20;18.87;;;15.50;99.90;;;;;;5041186;28;20221;-45
2021/07/02 06:20:51;;;;;;;25.30;17.50;;;15.50;99.90;;;;;;5048498;28;20189;-44
2021/07/02 06:23:18;;;;;;;26.10;16.60;;;15.50;99.90;;;;;;5047760;28;20197;-43
2021/07/02 06:25:44;;;;;;;29.20;18.80;;;15.50;99.90;;;;;;5027782;28;20440;-45
2021/07/02 06:28:09;;;;;;;26.77;17.67;;;15.40;99.90;;;;;;5047220;28;20790;-41
2021/07/02 06:30:35;;;;;;;24.77;18.17;;;15.40;99.90;;;;;;5048906;28;20193;-41
2021/07/02 06:33:01;;;;;;;23.80;18.07;;;15.40;99.90;;;;;;5040600;28;20225;-43
2021/07/02 06:35:26;;;;;;;24.43;16.50;;;15.40;99.90;;;;;;5048550;28;20197;-41
2021/07/02 06:37:52;;;;;;;25.97;16.90;;;15.40;99.90;;;;;;5046739;28;20210;-40
2021/07/02 06:40:19;;;;;;;27.83;17.93;;;15.40;99.90;;;;;;5048381;28;20659;-43
2021/07/02 06:42:45;;;;;;;26.50;17.97;;;15.40;99.90;;;;;;5048187;28;20189;-43
2021/07/02 06:45:12;;;;;;;28.27;17.17;;;15.40;99.90;;;;;;5048309;28;20807;-43
2021/07/02 06:48:05;;;;;;;27.33;17.97;;;15.40;99.90;;;;;;5035574;28;20448;-44
2021/07/02 06:50:33;;;;;;;28.07;17.20;;;15.40;99.90;;;;;;5047443;28;20436;-45
2021/07/02 06:53:00;;;;;;;24.37;17.63;;;15.50;99.90;;;;;;5047477;28;20542;-45
2021/07/02 06:55:26;;;;;;;24.53;17.27;;;15.70;99.90;;;;;;5047948;28;20432;-43
2021/07/02 06:57:53;;;;;;;29.63;16.97;;;15.90;99.90;;;;;;5046811;28;20475;-43
2021/07/02 07:00:19;;;;;;;26.93;17.73;;;16.20;99.90;;;;;;5047908;28;20447;-41
2021/07/02 07:02:46;;;;;;;26.07;15.13;;;16.50;99.90;;;;;;5039839;28;20447;-43
2021/07/02 07:05:12;;;;;;;24.60;16.20;;;16.90;99.90;;;;;;5045631;28;20830;-48
2021/07/02 07:07:38;;;;;;;20.37;15.13;;;17.20;99.90;;;;;;5047963;28;20742;-41
2021/07/02 07:10:04;;;;;;;24.13;16.47;;;17.40;99.90;;;;;;5047790;28;20468;-43
2021/07/02 07:12:30;;;;;;;25.40;16.10;;;17.40;99.90;;;;;;5047797;28;20656;-46
2021/07/02 07:14:56;;;;;;;24.00;14.90;;;17.30;99.90;;;;;;5047146;28;20648;-42
2021/07/02 07:17:22;;;;;;;23.33;16.10;;;17.20;99.90;;;;;;5039686;28;20206;-41
2021/07/02 07:19:48;;;;;;;22.60;14.43;;;17.30;99.90;;;;;;5038490;28;20624;-46
2021/07/02 07:22:14;;;;;;;21.97;13.90;;;17.30;99.90;;;;;;5047699;28;20205;-43
2021/07/02 07:24:40;;;;;;;19.80;11.87;;;17.30;99.90;;;;;;5047145;28;20976;-46
2021/07/02 07:27:06;;;;;;;15.40;11.50;;;17.30;99.90;;;;;;5047767;28;20205;-44
2021/07/02 07:29:32;;;;;;;15.70;10.40;;;17.30;99.90;;;;;;5047518;28;20202;-45
2021/07/02 07:31:58;;;;;;;14.47;10.53;;;17.30;99.90;;;;;;5043444;28;20511;-43
2021/07/02 07:34:48;;;;;;;13.53;9.40;;;17.40;99.90;;;;;;5039612;28;20190;-44
2021/07/02 07:37:15;;;;;;;14.20;10.60;;;17.40;99.90;;;;;;5040815;28;20218;-44
2021/07/02 07:39:41;;;;;;;14.33;9.60;;;17.30;99.90;;;;;;5047252;28;20488;-42
2021/07/02 07:42:07;;;;;;;12.70;9.07;;;17.40;99.90;;;;;;5047142;28;20440;-43
2021/07/02 07:44:33;;;;;;;12.53;9.30;;;17.50;99.90;;;;;;5046581;28;20193;-45
2021/07/02 07:46:59;;;;;;;14.23;9.17;;;17.70;99.90;;;;;;5042871;28;20460;-41
2021/07/02 07:49:25;;;;;;;12.80;8.40;;;17.60;99.90;;;;;;5036490;28;20859;-44
2021/07/02 07:51:56;;;;;;;12.07;8.10;;;17.60;99.90;;;;;;5047025;28;20217;-44
2021/07/02 07:54:22;;;;;;;14.03;8.20;;;17.60;99.90;;;;;;5046251;28;20197;-41
2021/07/02 07:56:51;;;;;;;9.20;6.70;;;17.60;99.90;;;;;;5046925;28;20467;-42
2021/07/02 07:59:18;;;;;;;7.70;6.90;;;17.80;99.90;;;;;;5046535;28;20486;-42
2021/07/02 08:01:44;;;;;;;10.73;7.80;;;18.10;99.90;;;;;;5046840;28;20427;-42
2021/07/02 08:04:13;;;;;;;8.43;5.67;;;18.10;99.90;;;;;;5034438;28;20437;-42
2021/07/02 08:06:38;;;;;;;8.33;5.40;;;18.40;99.90;;;;;;5046671;28;20189;-44
2021/07/02 08:09:04;;;;;;;6.90;5.27;;;18.40;99.90;;;;;;5045272;28;20455;-43
2021/07/02 08:11:30;;;;;;;7.07;5.40;;;18.50;99.90;;;;;;5046509;28;20185;-44
2021/07/02 08:13:55;;;;;;;7.60;5.20;;;18.40;99.90;;;;;;5044401;28;20379;-42
2021/07/02 08:16:21;;;;;;;6.00;4.80;;;18.50;99.90;;;;;;5045681;28;20194;-45
2021/07/02 08:18:46;;;;;;;5.50;4.70;;;18.50;99.90;;;;;;5037435;28;20194;-45
2021/07/02 08:21:12;;;;;;;6.53;4.93;;;18.60;99.90;;;;;;5046625;28;20196;-48
2021/07/02 08:23:38;;;;;;;6.47;5.30;;;18.60;99.90;;;;;;5044922;28;20645;-45
2021/07/02 08:26:04;;;;;;;8.90;5.67;;;18.60;99.90;;;;;;5046440;28;20210;-47
2021/07/02 08:31:13;;;;;;;8.43;5.63;;;18.50;99.90;;;;;;5046449;28;20193;-45
2021/07/02 08:33:39;;;;;;;5.07;4.23;;;18.50;99.90;;;;;;5033454;28;20448;-43
2021/07/02 08:36:05;;;;;;;5.77;4.13;;;18.70;99.90;;;;;;5046406;28;20251;-43
2021/07/02 08:38:30;;;;;;;6.30;4.03;;;18.70;99.90;;;;;;5046287;28;20215;-42
2021/07/02 08:40:56;;;;;;;5.70;3.57;;;18.70;99.90;;;;;;5045977;28;20227;-45
2021/07/02 08:43:22;;;;;;;4.70;3.90;;;18.90;99.90;;;;;;5045856;28;20222;-43
2021/07/02 08:45:47;;;;;;;4.57;3.90;;;18.70;99.90;;;;;;5046303;28;20220;-45
2021/07/02 08:48:20;;;;;;;6.20;4.20;;;18.70;99.90;;;;;;5036405;28;20201;-47
2021/07/02 08:50:47;;;;;;;4.90;3.50;;;18.70;99.90;;;;;;5045197;28;20182;-44
2021/07/02 08:53:12;;;;;;;5.00;3.57;;;18.90;99.90;;;;;;5045469;28;20428;-46
2021/07/02 08:55:39;;;;;;;3.47;2.73;;;19.10;99.90;;;;;;5046360;28;20865;-48
2021/07/02 08:58:15;;;;;;;5.10;3.77;;;19.30;99.90;;;;;;5044643;28;20351;-42
2021/07/02 09:00:42;;;;;;;3.63;2.97;;;19.50;99.90;;;;;;5044972;28;20439;-45
2021/07/02 09:03:31;;;;;;;2.83;2.60;;;19.60;99.90;;;;;;5039400;28;20424;-47
2021/07/02 09:06:13;;;;;;;3.53;3.03;;;19.60;99.90;;;;;;5043601;28;20436;-42
2021/07/02 09:08:56;;;;;;;2.83;2.20;;;19.70;99.90;;;;;;5045999;28;20456;-43
2021/07/02 09:11:31;;;;;;;5.57;2.97;;;19.60;99.90;;;;;;5046605;28;20507;-43
2021/07/02 09:13:57;;;;;;;3.13;2.53;;;19.50;99.90;;;;;;5045240;28;20908;-45
2021/07/02 09:16:28;;;;;;;4.03;2.57;;;19.60;99.90;;;;;;5045867;28;20492;-44
2021/07/02 09:18:54;;;;;;;3.70;2.83;;;19.60;99.90;;;;;;5036911;28;20267;-41
2021/07/02 09:21:28;;;;;;;3.87;3.07;;;19.80;99.90;;;;;;5046069;28;20416;-46
2021/07/02 09:23:58;;;;;;;3.10;2.70;;;20.00;99.90;;;;;;5045259;28;20842;-44
2021/07/02 09:26:34;;;;;;;4.00;2.60;;;20.10;99.90;;;;;;5046020;28;20798;-44
2021/07/02 09:29:13;;;;;;;3.03;2.77;;;20.30;99.90;;;;;;5048468;28;20432;-46
2021/07/02 09:31:38;;;;;;;4.03;3.13;;;20.40;99.90;;;;;;5049874;28;21076;-41
2021/07/02 09:34:04;;;;;;;5.43;3.83;;;20.60;99.90;;;;;;5030125;28;20720;-45
2021/07/02 09:36:30;;;;;;;2.83;2.63;;;20.40;99.90;;;;;;5049072;28;20276;-46
2021/07/02 09:38:55;;;;;;;5.83;3.20;;;20.30;99.90;;;;;;5049319;28;20189;-44
2021/07/02 09:41:33;;;;;;;4.90;3.27;;;20.10;99.90;;;;;;5049814;28;20181;-44
2021/07/02 09:44:12;;;;;;;4.53;3.47;;;20.10;99.90;;;;;;5048897;28;20189;-47
2021/07/02 09:46:37;;;;;;;4.10;3.67;;;20.30;99.90;;;;;;5049506;28;20554;-45
2021/07/02 09:49:03;;;;;;;3.20;2.80;;;20.40;99.90;;;;;;5035512;28;20528;-44
2021/07/02 09:51:31;;;;;;;4.30;3.90;;;20.40;99.90;;;;;;5047570;28;20311;-43
2021/07/02 09:54:06;;;;;;;4.07;3.67;;;20.60;99.90;;;;;;5046375;28;20522;-42
2021/07/02 09:56:32;;;;;;;4.63;3.77;;;20.60;99.90;;;;;;5049404;28;20498;-44
2021/07/02 09:58:57;;;;;;;4.07;3.70;;;20.60;99.90;;;;;;5048052;28;20575;-46
2021/07/02 10:01:28;;;;;;;3.70;3.37;;;20.60;99.90;;;;;;5049142;28;20197;-42
2021/07/02 10:04:05;;;;;;;4.20;3.50;;;20.70;99.90;;;;;;5039624;28;20521;-42
2021/07/02 10:06:31;;;;;;;4.33;3.57;;;20.60;99.90;;;;;;5049011;28;20434;-43
2021/07/02 10:09:00;;;;;;;4.53;3.73;;;20.30;99.90;;;;;;5047718;28;20440;-46
2021/07/02 10:11:25;;;;;;;4.97;4.43;;;20.20;99.90;;;;;;5048854;28;20565;-44
2021/07/02 10:13:51;;;;;;;6.50;3.50;;;20.00;99.90;;;;;;5048701;28;20417;-45
2021/07/02 10:16:17;;;;;;;4.13;3.70;;;20.00;99.90;;;;;;5049246;28;20202;-46
2021/07/02 10:18:52;;;;;;;4.20;3.43;;;20.00;99.90;;;;;;5041836;28;20225;-45
2021/07/02 10:21:20;;;;;;;3.73;3.40;;;20.10;99.90;;;;;;5042091;28;20416;-46
2021/07/02 10:23:52;;;;;;;4.47;4.00;;;20.00;99.90;;;;;;5048334;28;20430;-43
2021/07/02 10:26:21;;;;;;;4.37;3.97;;;20.30;99.90;;;;;;5048315;28;20470;-42
2021/07/02 10:28:48;;;;;;;5.07;4.57;;;20.40;99.90;;;;;;5048596;28;20474;-47
2021/07/02 10:31:16;;;;;;;4.80;4.40;;;20.20;99.90;;;;;;5048362;28;20448;-43
2021/07/02 10:33:44;;;;;;;5.03;4.23;;;20.10;99.90;;;;;;5041466;28;20475;-45
2021/07/02 10:36:12;;;;;;;6.60;3.70;;;20.00;99.90;;;;;;5043066;28;20424;-43
2021/07/02 10:38:47;;;;;;;4.33;3.90;;;19.80;99.90;;;;;;5047923;28;20554;-45
2021/07/02 10:41:18;;;;;;;5.83;4.10;;;19.70;99.90;;;;;;5047712;28;20447;-43
2021/07/02 10:44:10;;;;;;;5.13;3.67;;;19.60;99.90;;;;;;5047232;28;20510;-45
2021/07/02 10:47:01;;;;;;;4.60;4.10;;;19.60;99.90;;;;;;5048376;28;20425;-44
2021/07/02 10:49:38;;;;;;;4.50;4.10;;;19.70;99.90;;;;;;5037750;28;20433;-44
2021/07/02 10:52:30;;;;;;;6.80;4.70;;;20.00;99.90;;;;;;5042336;28;20440;-44
2021/07/02 10:54:57;;;;;;;5.30;4.30;;;20.10;99.90;;;;;;5034861;28;20554;-45
2021/07/02 10:57:25;;;;;;;4.77;4.10;;;20.20;99.90;;;;;;5046779;28;20456;-42
2021/07/02 10:59:52;;;;;;;5.00;4.50;;;20.20;99.90;;;;;;5046695;28;20432;-45
2021/07/02 11:02:25;;;;;;;5.90;4.70;;;20.20;99.90;;;;;;5047778;28;20431;-44
2021/07/02 11:04:57;;;;;;;6.87;4.90;;;20.00;99.90;;;;;;5039966;28;20440;-46
2021/07/02 11:07:23;;;;;;;4.43;4.03;;;20.00;99.90;;;;;;5047692;28;21073;-43
2021/07/02 11:12:18;;;;;;;5.60;4.40;;;20.10;99.90;;;;;;5048018;28;20190;-43
2021/07/02 11:14:56;;;;;;;5.80;4.40;;;20.10;99.90;;;;;;5046970;28;20193;-44
2021/07/02 11:17:26;;;;;;;4.83;4.00;;;20.10;99.90;;;;;;5047703;28;20491;-43
2021/07/02 11:22:39;;;;;;;5.47;4.97;;;20.00;99.90;;;;;;5045476;28;20404;-47
2021/07/02 11:25:05;;;;;;;5.40;4.80;;;20.20;99.90;;;;;;5047017;28;20784;-47
2021/07/02 11:30:20;;;;;;;5.13;4.03;;;20.50;99.90;;;;;;5047418;28;20546;-45
2021/07/02 11:32:48;;;;;;;5.70;5.03;;;20.70;99.90;;;;;;5047263;28;20428;-44
2021/07/02 11:35:30;;;;;;;6.37;4.87;;;20.70;99.90;;;;;;5036865;28;20508;-43
2021/07/02 11:38:11;;;;;;;7.73;5.43;;;20.50;99.90;;;;;;5046288;28;21033;-46
2021/07/02 11:40:58;;;;;;;6.77;5.10;;;20.50;99.90;;;;;;5044641;28;20432;-48
2021/07/02 11:43:39;;;;;;;7.13;6.47;;;20.60;99.90;;;;;;5044823;28;20694;-44
2021/07/02 11:46:15;;;;;;;10.70;5.93;;;20.90;99.90;;;;;;5043451;28;20855;-43
2021/07/02 11:48:46;;;;;;;6.27;5.67;;;20.90;99.90;;;;;;5045376;28;20427;-45
2021/07/02 11:51:17;;;;;;;6.03;5.10;;;20.70;99.90;;;;;;5040406;28;20541;-43
2021/07/02 11:53:52;;;;;;;5.63;5.13;;;20.70;99.90;;;;;;5046173;28;20428;-45
2021/07/02 11:56:19;;;;;;;6.53;5.87;;;20.80;99.90;;;;;;5051976;28;20441;-47
2021/07/02 11:58:47;;;;;;;7.00;6.40;;;20.90;99.90;;;;;;5065166;28;20454;-43
2021/07/02 12:01:18;;;;;;;8.23;6.00;;;21.00;99.90;;;;;;5066800;28;20431;-47
2021/07/02 12:03:55;;;;;;;8.50;5.37;;;21.00;99.90;;;;;;5064857;28;20415;-45
2021/07/02 12:06:24;;;;;;;5.90;5.30;;;20.90;99.90;;;;;;5040296;28;20455;-44
2021/07/02 12:08:59;;;;;;;5.40;4.70;;;20.80;99.90;;;;;;5046720;28;20491;-45
2021/07/02 12:11:36;;;;;;;7.10;4.33;;;20.70;99.90;;;;;;5046798;28;20420;-43
2021/07/02 12:14:03;;;;;;;9.53;5.50;;;20.80;99.90;;;;;;5045917;28;20412;-44
2021/07/02 12:16:32;;;;;;;5.80;5.20;;;20.80;99.90;;;;;;5046795;28;20427;-46
2021/07/02 12:18:58;;;;;;;7.90;6.00;;;20.90;99.90;;;;;;5044654;28;20412;-44
2021/07/02 12:21:30;;;;;;;6.00;4.60;;;20.90;99.90;;;;;;5040305;28;20791;-43
2021/07/02 12:23:59;;;;;;;8.47;5.50;;;20.80;99.90;;;;;;5045003;28;20417;-44
2021/07/02 12:26:27;;;;;;;13.17;5.17;;;20.70;99.90;;;;;;5046688;28;20788;-47
2021/07/02 12:28:59;;;;;;;6.87;6.20;;;20.60;99.90;;;;;;5046253;28;20420;-45
2021/07/02 12:31:30;;;;;;;5.00;4.50;;;20.50;99.90;;;;;;5047695;28;20926;-43
2021/07/02 12:33:57;;;;;;;6.80;4.97;;;20.60;99.90;;;;;;5046393;28;20435;-42
2021/07/02 12:36:24;;;;;;;6.30;5.70;;;20.60;99.90;;;;;;5041631;28;20879;-43
2021/07/02 12:39:06;;;;;;;5.57;5.17;;;20.60;99.90;;;;;;5045886;28;20452;-47
2021/07/02 12:41:42;;;;;;;5.70;5.10;;;20.60;99.90;;;;;;5046037;28;20451;-45
2021/07/02 12:44:11;;;;;;;6.70;6.10;;;20.50;99.90;;;;;;5043869;28;20416;-45
2021/07/02 12:46:37;;;;;;;9.73;6.57;;;20.50;99.90;;;;;;5045719;28;20934;-43
2021/07/02 12:49:25;;;;;;;6.93;6.23;;;20.40;99.90;;;;;;5044740;28;20955;-44